Time;durP1;ratioP1;P1;durP2;ratioP2;P2;SDS_P1;SDS_P2;PMS_P1;PMS_P2;Temp;Humidity;BMP_temperature;BMP_pressure;BME280_temperature;BME280_humidity;BME280_pressure;Samples;Min_cycle;Max_cycle;Signal;HPM_P1;HPM_P2
2023/12/15 00:00:18;;;;;;;1.80;1.10;;;8.30;99.90;;;;;;7399172;19;20164;-76
2023/12/15 00:02:45;;;;;;;1.40;1.30;;;8.20;99.90;;;;;;7396555;19;20146;-77
2023/12/15 00:05:11;;;;;;;1.43;1.10;;;8.20;99.90;;;;;;7395714;19;20157;-76
2023/12/15 00:07:37;;;;;;;1.50;1.17;;;8.20;99.90;;;;;;7396242;19;20152;-76
2023/12/15 00:10:03;;;;;;;1.57;1.33;;;8.20;99.90;;;;;;7396375;19;20651;-76
2023/12/15 00:12:29;;;;;;;1.40;1.10;;;8.20;99.90;;;;;;7396011;19;20135;-76
2023/12/15 00:14:55;;;;;;;1.90;1.63;;;8.00;99.90;;;;;;7395585;19;20219;-76
2023/12/15 00:17:20;;;;;;;1.87;1.57;;;8.10;99.90;;;;;;7397194;19;20591;-75
2023/12/15 00:19:46;;;;;;;1.03;1.00;;;8.10;99.90;;;;;;7395975;19;20150;-76
2023/12/15 00:22:12;;;;;;;1.70;1.10;;;7.80;99.90;;;;;;7397662;19;20138;-76
2023/12/15 00:24:37;;;;;;;1.37;1.00;;;7.80;99.90;;;;;;7394676;19;20178;-75
2023/12/15 00:27:03;;;;;;;1.17;1.07;;;7.80;99.90;;;;;;7397152;19;20142;-75
2023/12/15 00:29:29;;;;;;;1.17;0.90;;;7.90;99.90;;;;;;7394287;19;20158;-75
2023/12/15 00:31:55;;;;;;;2.17;1.10;;;8.00;99.90;;;;;;7396364;19;20194;-75
2023/12/15 00:34:21;;;;;;;1.23;1.07;;;8.00;99.90;;;;;;7395710;19;20590;-76
2023/12/15 00:36:47;;;;;;;3.10;1.10;;;8.00;99.90;;;;;;7395631;19;20142;-76
2023/12/15 00:39:12;;;;;;;1.37;1.27;;;7.90;99.90;;;;;;7396807;19;20711;-76
2023/12/15 00:41:38;;;;;;;1.17;0.87;;;7.90;99.90;;;;;;7396170;19;20138;-76
2023/12/15 00:44:06;;;;;;;1.20;0.97;;;7.90;99.90;;;;;;7396601;19;20151;-76
2023/12/15 00:46:35;;;;;;;1.40;1.17;;;7.90;99.90;;;;;;7393507;19;20150;-76
2023/12/15 00:49:01;;;;;;;1.30;0.90;;;7.80;99.90;;;;;;7395798;19;20523;-76
2023/12/15 00:51:27;;;;;;;1.77;0.93;;;7.80;99.90;;;;;;7396019;19;20147;-77
2023/12/15 00:53:52;;;;;;;1.53;1.27;;;7.70;99.90;;;;;;7395511;19;20152;-77
2023/12/15 00:56:18;;;;;;;2.13;1.00;;;7.50;99.90;;;;;;7395212;19;20152;-76
2023/12/15 00:58:44;;;;;;;1.47;1.20;;;7.60;99.90;;;;;;7394880;19;20151;-76
2023/12/15 01:01:09;;;;;;;1.67;1.50;;;7.60;99.90;;;;;;7394892;19;20520;-76
2023/12/15 01:03:35;;;;;;;1.50;1.20;;;7.40;99.90;;;;;;7395199;19;20147;-76
2023/12/15 01:06:01;;;;;;;1.80;1.20;;;7.50;99.90;;;;;;7393700;19;20638;-76
2023/12/15 01:08:27;;;;;;;1.50;1.07;;;7.60;99.90;;;;;;7394219;19;20126;-77
2023/12/15 01:10:52;;;;;;;2.03;1.37;;;7.80;99.90;;;;;;7395064;19;20123;-77
2023/12/15 01:13:18;;;;;;;1.60;1.00;;;7.80;99.90;;;;;;7394516;19;20667;-76
2023/12/15 01:15:44;;;;;;;1.97;1.27;;;7.90;99.90;;;;;;7395715;19;20127;-76
2023/12/15 01:18:10;;;;;;;1.57;1.30;;;7.90;99.90;;;;;;7395339;19;20142;-76
2023/12/15 01:20:36;;;;;;;3.37;1.60;;;7.90;99.90;;;;;;7395475;19;20127;-77
2023/12/15 01:23:02;;;;;;;1.23;1.13;;;7.90;99.90;;;;;;7395638;19;20127;-76
2023/12/15 01:25:28;;;;;;;1.13;0.97;;;7.80;99.90;;;;;;7394767;19;20452;-76
2023/12/15 01:27:54;;;;;;;2.20;1.63;;;7.80;99.90;;;;;;7395079;19;20165;-76
2023/12/15 01:30:19;;;;;;;0.83;0.70;;;7.90;99.90;;;;;;7395974;19;20436;-76
2023/12/15 01:32:45;;;;;;;2.83;1.33;;;7.80;99.90;;;;;;7388150;19;20130;-76
2023/12/15 01:35:11;;;;;;;1.20;1.10;;;7.90;99.90;;;;;;7396519;19;20131;-76
2023/12/15 01:37:37;;;;;;;1.70;1.10;;;7.80;99.90;;;;;;7394269;19;20151;-77
2023/12/15 01:40:03;;;;;;;1.50;1.30;;;7.90;99.90;;;;;;7394154;19;20486;-76
2023/12/15 01:42:28;;;;;;;1.33;1.10;;;8.00;99.90;;;;;;7394406;19;20142;-76
2023/12/15 01:44:54;;;;;;;1.50;1.40;;;7.90;99.90;;;;;;7394253;19;20142;-75
2023/12/15 01:47:21;;;;;;;2.50;1.63;;;7.90;99.90;;;;;;7391626;19;20162;-77
2023/12/15 01:49:48;;;;;;;1.80;1.30;;;7.90;99.90;;;;;;7392881;19;20604;-77
2023/12/15 01:52:14;;;;;;;1.10;1.00;;;7.80;99.90;;;;;;7393108;19;20272;-76
2023/12/15 01:54:39;;;;;;;1.53;1.20;;;7.90;99.90;;;;;;7395797;19;20139;-76
2023/12/15 01:57:06;;;;;;;2.10;1.63;;;7.90;99.90;;;;;;7392888;19;20139;-76
2023/12/15 01:59:49;;;;;;;1.63;1.40;;;7.90;99.90;;;;;;7393115;19;20948;-76
2023/12/15 02:02:15;;;;;;;1.50;1.30;;;7.80;99.90;;;;;;7394868;19;20134;-76
2023/12/15 02:04:41;;;;;;;1.73;1.30;;;7.80;99.90;;;;;;7390899;19;20154;-76
2023/12/15 02:07:07;;;;;;;1.50;0.97;;;7.80;99.90;;;;;;7394419;19;20637;-76
2023/12/15 02:09:33;;;;;;;2.53;1.17;;;7.80;99.90;;;;;;7393929;19;20136;-77
2023/12/15 02:11:59;;;;;;;1.60;1.27;;;7.80;99.90;;;;;;7393249;19;20977;-76
2023/12/15 02:14:24;;;;;;;1.20;0.97;;;7.80;99.90;;;;;;7394505;19;20190;-75
2023/12/15 02:16:50;;;;;;;1.47;1.23;;;7.90;99.90;;;;;;7393338;19;20618;-76
2023/12/15 02:19:16;;;;;;;2.90;1.67;;;7.80;99.90;;;;;;7391723;19;20510;-77
2023/12/15 02:21:42;;;;;;;1.53;1.00;;;7.70;99.90;;;;;;7394403;19;20143;-76
2023/12/15 02:24:08;;;;;;;2.13;1.40;;;7.70;99.90;;;;;;7393847;19;20130;-76
2023/12/15 02:26:33;;;;;;;1.17;0.73;;;7.70;99.90;;;;;;7392331;19;20154;-76
2023/12/15 02:28:59;;;;;;;1.17;1.07;;;7.70;99.90;;;;;;7393803;19;20130;-76
2023/12/15 02:31:25;;;;;;;1.03;0.97;;;7.70;99.90;;;;;;7391688;19;20131;-76
2023/12/15 02:33:53;;;;;;;0.80;0.80;;;7.60;99.90;;;;;;7392510;19;20146;-76
2023/12/15 02:36:20;;;;;;;0.93;0.93;;;7.50;99.90;;;;;;7393118;19;20139;-76
2023/12/15 02:38:46;;;;;;;1.07;0.97;;;7.60;99.90;;;;;;7391853;19;20210;-76
2023/12/15 02:41:12;;;;;;;1.57;1.40;;;7.60;99.90;;;;;;7392069;19;20146;-76
2023/12/15 02:43:38;;;;;;;0.87;0.87;;;7.70;99.90;;;;;;7390765;19;20147;-76
2023/12/15 02:46:07;;;;;;;1.50;1.10;;;7.80;99.90;;;;;;7391127;19;20549;-76
2023/12/15 02:48:33;;;;;;;1.93;1.37;;;7.60;99.90;;;;;;7391096;19;20147;-76
2023/12/15 02:51:00;;;;;;;2.03;1.10;;;7.60;99.90;;;;;;7392200;19;20151;-75
2023/12/15 02:53:28;;;;;;;2.50;1.50;;;7.60;99.90;;;;;;7389570;19;20141;-77
2023/12/15 02:55:54;;;;;;;1.30;1.20;;;7.60;99.90;;;;;;7392572;19;20143;-76
2023/12/15 02:58:20;;;;;;;0.83;0.83;;;7.60;99.90;;;;;;7391047;19;20133;-76
2023/12/15 03:00:49;;;;;;;2.33;1.37;;;7.50;99.90;;;;;;7392937;19;20127;-76
2023/12/15 03:03:14;;;;;;;1.77;1.27;;;7.60;99.90;;;;;;7390627;19;20146;-76
2023/12/15 03:05:40;;;;;;;1.40;0.93;;;7.40;99.90;;;;;;7390414;19;20185;-76
2023/12/15 03:08:07;;;;;;;1.13;0.97;;;7.50;99.90;;;;;;7392930;19;20139;-76
2023/12/15 03:10:32;;;;;;;1.50;1.17;;;7.40;99.90;;;;;;7389527;19;20141;-76
2023/12/15 03:12:58;;;;;;;1.17;1.07;;;7.20;99.90;;;;;;7392904;19;20139;-76
2023/12/15 03:15:24;;;;;;;1.70;1.40;;;7.40;99.90;;;;;;7391560;19;20142;-76
2023/12/15 03:17:50;;;;;;;2.13;1.30;;;7.50;99.90;;;;;;7390587;19;20608;-76
2023/12/15 03:20:16;;;;;;;1.73;1.20;;;7.60;99.90;;;;;;7392555;19;20139;-76
2023/12/15 03:22:41;;;;;;;1.43;1.13;;;7.30;99.90;;;;;;7390890;19;20151;-76
2023/12/15 03:25:07;;;;;;;1.00;0.90;;;7.50;99.90;;;;;;7390098;19;20130;-76
2023/12/15 03:27:33;;;;;;;1.57;1.23;;;7.60;99.90;;;;;;7390244;19;20147;-76
2023/12/15 03:30:00;;;;;;;1.27;0.97;;;7.40;99.90;;;;;;7390558;19;20226;-76
2023/12/15 03:32:25;;;;;;;1.47;0.87;;;7.60;99.90;;;;;;7391556;19;20210;-77
2023/12/15 03:34:51;;;;;;;1.70;1.23;;;7.70;99.90;;;;;;7390861;19;20134;-77
2023/12/15 03:37:17;;;;;;;1.13;1.03;;;7.70;99.90;;;;;;7390650;19;20138;-77
2023/12/15 03:39:43;;;;;;;1.40;1.30;;;7.70;99.90;;;;;;7392376;19;20134;-76
2023/12/15 03:42:11;;;;;;;1.23;0.90;;;7.70;99.90;;;;;;7390149;19;20572;-76
2023/12/15 03:44:39;;;;;;;0.87;0.87;;;7.70;99.90;;;;;;7387300;19;20225;-75
2023/12/15 03:47:06;;;;;;;1.20;1.00;;;7.60;99.90;;;;;;7388190;19;20276;-76
2023/12/15 03:49:35;;;;;;;2.50;1.67;;;7.60;99.90;;;;;;7391007;19;20150;-76
2023/12/15 03:52:02;;;;;;;1.57;1.30;;;7.50;99.90;;;;;;7391646;19;20138;-75
2023/12/15 03:54:28;;;;;;;1.43;1.00;;;7.70;99.90;;;;;;7391565;19;20157;-77
2023/12/15 03:56:57;;;;;;;1.73;1.63;;;7.50;99.90;;;;;;7389124;19;20127;-76
2023/12/15 03:59:23;;;;;;;1.57;1.27;;;7.60;99.90;;;;;;7390158;19;20131;-76
2023/12/15 04:01:49;;;;;;;2.70;1.50;;;7.60;99.90;;;;;;7387809;19;20141;-76
2023/12/15 04:04:15;;;;;;;1.83;1.43;;;7.70;99.90;;;;;;7388407;19;20138;-77
2023/12/15 04:06:40;;;;;;;1.60;1.33;;;7.70;99.90;;;;;;7390231;19;20209;-76
2023/12/15 04:09:09;;;;;;;1.10;1.00;;;7.70;99.90;;;;;;7388315;19;20146;-76
2023/12/15 04:11:36;;;;;;;1.90;1.50;;;7.70;99.90;;;;;;7390366;19;20259;-75
2023/12/15 04:14:03;;;;;;;2.10;1.60;;;7.70;99.90;;;;;;7389404;19;20127;-76
2023/12/15 04:16:28;;;;;;;1.70;1.57;;;7.70;99.90;;;;;;7391422;19;20135;-75
2023/12/15 04:18:54;;;;;;;1.60;1.37;;;7.70;99.90;;;;;;7389127;19;20123;-76
2023/12/15 04:21:20;;;;;;;1.10;1.00;;;7.80;99.90;;;;;;7391447;19;20168;-76
2023/12/15 04:23:46;;;;;;;1.97;1.10;;;7.70;99.90;;;;;;7389298;19;20718;-76
2023/12/15 04:26:12;;;;;;;0.97;0.87;;;7.70;99.90;;;;;;7389860;19;20190;-77
2023/12/15 04:28:38;;;;;;;0.90;0.90;;;7.80;99.90;;;;;;7394430;19;20209;-76
2023/12/15 04:31:04;;;;;;;1.07;0.90;;;7.70;99.90;;;;;;7394136;19;20296;-76
2023/12/15 04:33:29;;;;;;;1.87;1.27;;;7.70;99.90;;;;;;7393445;19;20155;-76
2023/12/15 04:35:55;;;;;;;1.97;1.33;;;7.80;99.90;;;;;;7396334;19;20211;-77
2023/12/15 04:38:21;;;;;;;0.93;0.73;;;7.80;99.90;;;;;;7395227;19;20548;-77
2023/12/15 04:40:47;;;;;;;2.50;1.33;;;7.80;99.90;;;;;;7396669;19;20170;-77
2023/12/15 04:43:12;;;;;;;2.00;1.20;;;7.80;99.90;;;;;;7397559;19;20483;-76
2023/12/15 04:45:38;;;;;;;1.63;1.40;;;7.80;99.90;;;;;;7396554;19;20169;-76
2023/12/15 04:48:04;;;;;;;0.80;0.80;;;7.80;99.90;;;;;;7392918;19;20146;-76
2023/12/15 04:50:30;;;;;;;1.30;1.20;;;7.80;99.90;;;;;;7394672;19;20134;-76
2023/12/15 04:52:55;;;;;;;1.53;1.17;;;7.80;99.90;;;;;;7395740;19;20496;-77
2023/12/15 04:55:21;;;;;;;1.03;0.90;;;7.80;99.90;;;;;;7396131;19;20139;-77
2023/12/15 04:57:47;;;;;;;1.83;1.30;;;7.80;99.90;;;;;;7394824;19;20154;-77
2023/12/15 05:00:13;;;;;;;1.17;1.07;;;7.80;99.90;;;;;;7395181;19;20668;-76
2023/12/15 05:02:39;;;;;;;0.73;0.70;;;7.70;99.90;;;;;;7395136;19;20214;-76
2023/12/15 05:05:06;;;;;;;1.77;1.67;;;7.70;99.90;;;;;;7393514;19;20164;-76
2023/12/15 05:07:35;;;;;;;1.10;0.93;;;7.80;99.90;;;;;;7394470;19;20139;-76
2023/12/15 05:10:01;;;;;;;1.37;1.17;;;7.80;99.90;;;;;;7397137;19;20137;-77
2023/12/15 05:12:27;;;;;;;1.13;1.03;;;7.80;99.90;;;;;;7393918;19;20545;-76
2023/12/15 05:14:52;;;;;;;2.17;1.53;;;7.80;99.90;;;;;;7395705;19;20623;-76
2023/12/15 05:17:18;;;;;;;1.93;1.20;;;7.80;99.90;;;;;;7393444;19;20131;-75
2023/12/15 05:19:44;;;;;;;1.20;1.10;;;7.90;99.90;;;;;;7395024;19;20131;-77
2023/12/15 05:22:10;;;;;;;2.97;1.43;;;7.80;99.90;;;;;;7393929;19;20134;-75
2023/12/15 05:24:35;;;;;;;1.17;1.07;;;7.90;99.90;;;;;;7395029;19;20147;-76
2023/12/15 05:27:01;;;;;;;1.10;1.00;;;7.80;99.90;;;;;;7393085;19;20599;-76
2023/12/15 05:29:27;;;;;;;1.10;1.00;;;7.90;99.90;;;;;;7395013;19;20135;-76
2023/12/15 05:31:53;;;;;;;1.93;1.30;;;7.90;99.90;;;;;;7394981;19;20607;-76
2023/12/15 05:34:18;;;;;;;1.47;1.17;;;7.90;99.90;;;;;;7394269;19;20609;-76
2023/12/15 05:36:44;;;;;;;1.20;0.80;;;7.90;99.90;;;;;;7394056;19;20454;-76
2023/12/15 05:39:11;;;;;;;1.57;1.30;;;8.00;99.90;;;;;;7389727;19;20350;-76
2023/12/15 05:41:42;;;;;;;2.10;1.73;;;8.00;99.90;;;;;;7394084;19;20138;-76
2023/12/15 05:44:08;;;;;;;2.40;1.47;;;8.00;99.90;;;;;;7393925;19;20218;-76
2023/12/15 05:46:39;;;;;;;1.67;1.13;;;8.10;99.90;;;;;;7393119;19;20168;-76
2023/12/15 05:49:05;;;;;;;1.97;1.20;;;8.00;99.90;;;;;;7393858;19;20144;-76
2023/12/15 05:51:31;;;;;;;1.87;1.43;;;8.00;99.90;;;;;;7392244;19;20142;-76
2023/12/15 05:53:59;;;;;;;3.27;1.13;;;8.10;99.90;;;;;;7395944;19;20146;-77
2023/12/15 05:56:25;;;;;;;0.97;0.83;;;8.00;99.90;;;;;;7393467;19;20177;-77
2023/12/15 05:58:53;;;;;;;3.10;1.00;;;8.00;99.90;;;;;;7393419;19;20579;-76
2023/12/15 06:01:18;;;;;;;1.90;1.43;;;8.00;99.90;;;;;;7391856;19;20611;-76
2023/12/15 06:03:44;;;;;;;1.90;1.50;;;8.00;99.90;;;;;;7392147;19;20134;-76
2023/12/15 06:06:12;;;;;;;1.13;1.03;;;7.90;99.90;;;;;;7391132;19;20154;-76
2023/12/15 06:08:37;;;;;;;1.10;1.00;;;8.00;99.90;;;;;;7394015;19;20155;-76
2023/12/15 06:11:03;;;;;;;1.50;1.13;;;7.90;99.90;;;;;;7392066;19;20153;-76
2023/12/15 06:13:29;;;;;;;2.10;1.90;;;7.90;99.90;;;;;;7392839;19;20146;-75
2023/12/15 06:15:55;;;;;;;1.87;1.47;;;8.00;99.90;;;;;;7392805;19;20202;-76
2023/12/15 06:18:21;;;;;;;1.27;0.80;;;8.00;99.90;;;;;;7392727;19;20146;-76
2023/12/15 06:20:47;;;;;;;1.77;1.67;;;8.00;99.90;;;;;;7393118;19;20749;-76
2023/12/15 06:23:13;;;;;;;1.90;1.53;;;8.00;99.90;;;;;;7392189;19;20899;-77
2023/12/15 06:25:39;;;;;;;1.60;1.23;;;8.10;99.90;;;;;;7393782;19;20131;-76
2023/12/15 06:28:08;;;;;;;2.07;1.40;;;8.10;99.90;;;;;;7392640;19;20276;-76
2023/12/15 06:30:36;;;;;;;1.20;1.10;;;8.10;99.90;;;;;;7393387;19;20226;-75
2023/12/15 06:33:04;;;;;;;1.67;1.27;;;8.00;99.90;;;;;;7393260;19;20489;-76
2023/12/15 06:35:30;;;;;;;1.23;1.13;;;8.10;99.90;;;;;;7391753;19;20206;-76
2023/12/15 06:37:56;;;;;;;1.87;1.40;;;8.10;99.90;;;;;;7391597;19;20169;-76
2023/12/15 06:40:21;;;;;;;1.40;1.30;;;8.10;99.90;;;;;;7393493;19;20147;-77
2023/12/15 06:42:47;;;;;;;1.27;1.17;;;8.00;99.90;;;;;;7390447;19;20144;-75
2023/12/15 06:45:13;;;;;;;2.07;1.63;;;8.10;99.90;;;;;;7388590;19;20142;-75
2023/12/15 06:47:39;;;;;;;1.10;1.00;;;8.10;99.90;;;;;;7384747;19;20162;-77
2023/12/15 06:50:06;;;;;;;1.60;1.23;;;8.10;99.90;;;;;;7390248;19;20151;-76
2023/12/15 06:52:34;;;;;;;1.70;1.57;;;8.20;99.90;;;;;;7395636;19;20567;-79
2023/12/15 06:55:00;;;;;;;1.43;1.33;;;8.10;99.90;;;;;;7393486;19;20163;-75
2023/12/15 06:57:26;;;;;;;2.10;1.20;;;8.10;99.90;;;;;;7392783;19;20151;-76
2023/12/15 06:59:52;;;;;;;2.30;1.23;;;8.10;99.90;;;;;;7393522;19;20147;-77
2023/12/15 07:02:18;;;;;;;2.73;1.53;;;8.10;99.90;;;;;;7393411;19;20161;-79
2023/12/15 07:04:44;;;;;;;2.00;1.50;;;8.00;99.90;;;;;;7391976;19;20253;-77
2023/12/15 07:07:10;;;;;;;1.27;1.00;;;8.00;99.90;;;;;;7393415;19;20173;-79
2023/12/15 07:09:36;;;;;;;1.17;1.07;;;8.00;99.90;;;;;;7391327;19;20159;-79
2023/12/15 07:12:02;;;;;;;3.83;1.90;;;8.00;99.90;;;;;;7392268;19;20146;-80
2023/12/15 07:14:29;;;;;;;1.23;1.00;;;8.10;99.90;;;;;;7390147;19;20147;-77
2023/12/15 07:16:54;;;;;;;2.70;1.50;;;8.10;99.90;;;;;;7392361;19;20137;-79
2023/12/15 07:19:20;;;;;;;1.20;1.10;;;8.10;99.90;;;;;;7394075;19;20540;-78
2023/12/15 07:21:47;;;;;;;1.90;1.30;;;8.10;99.90;;;;;;7392047;19;20147;-77
2023/12/15 07:24:12;;;;;;;0.93;0.83;;;8.20;99.90;;;;;;7391297;19;20127;-78
2023/12/15 07:26:38;;;;;;;2.03;1.50;;;8.20;99.90;;;;;;7386703;19;20587;-77
2023/12/15 07:29:05;;;;;;;1.50;1.20;;;8.20;99.90;;;;;;7387719;19;20463;-77
2023/12/15 07:31:31;;;;;;;1.80;1.50;;;8.20;99.90;;;;;;7389265;19;20131;-77
2023/12/15 07:33:56;;;;;;;1.57;1.47;;;8.10;99.90;;;;;;7394885;19;20134;-79
2023/12/15 07:36:22;;;;;;;1.87;1.40;;;8.10;99.90;;;;;;7389091;19;20146;-76
2023/12/15 07:38:48;;;;;;;1.90;1.27;;;8.10;99.90;;;;;;7390157;19;20130;-77
2023/12/15 07:41:14;;;;;;;2.40;1.27;;;8.10;99.90;;;;;;7391361;19;20528;-77
2023/12/15 07:43:40;;;;;;;1.90;1.40;;;8.10;99.90;;;;;;7388452;19;20135;-77
2023/12/15 07:46:18;;;;;;;1.47;1.07;;;8.10;99.90;;;;;;7391048;19;20185;-77
2023/12/15 07:48:44;;;;;;;1.53;1.10;;;8.10;99.90;;;;;;7391434;19;20220;-76
2023/12/15 07:51:17;;;;;;;1.30;1.07;;;8.10;99.90;;;;;;7390065;19;20222;-76
2023/12/15 07:53:43;;;;;;;2.17;1.20;;;8.20;99.90;;;;;;7392105;19;20156;-75
2023/12/15 07:56:17;;;;;;;1.13;0.90;;;8.20;99.90;;;;;;7388960;19;20181;-77
2023/12/15 07:58:43;;;;;;;2.07;1.80;;;8.20;99.90;;;;;;7391644;19;20148;-77
2023/12/15 08:01:09;;;;;;;2.13;1.20;;;8.20;99.90;;;;;;7389192;19;20144;-78
2023/12/15 08:03:35;;;;;;;1.67;1.30;;;8.00;99.90;;;;;;7397017;19;20887;-77
2023/12/15 08:06:01;;;;;;;2.13;1.03;;;8.10;99.90;;;;;;7394575;19;20151;-77
2023/12/15 08:08:26;;;;;;;2.87;1.73;;;8.10;99.90;;;;;;7397299;19;20214;-78
2023/12/15 08:10:52;;;;;;;1.53;1.30;;;8.10;99.90;;;;;;7395339;19;20160;-77
2023/12/15 08:13:20;;;;;;;1.77;1.47;;;8.10;99.90;;;;;;7398465;19;20158;-77
2023/12/15 08:15:47;;;;;;;2.03;1.20;;;8.10;99.90;;;;;;7396876;19;20151;-76
2023/12/15 08:18:13;;;;;;;2.20;1.37;;;8.10;99.90;;;;;;7397309;19;20802;-78
2023/12/15 08:20:39;;;;;;;1.73;1.53;;;8.20;99.90;;;;;;7398734;19;20135;-76
2023/12/15 08:23:05;;;;;;;1.87;1.40;;;8.10;99.90;;;;;;7398296;19;20836;-76
2023/12/15 08:25:30;;;;;;;1.77;1.33;;;8.10;99.90;;;;;;7397193;19;20130;-76
2023/12/15 08:27:58;;;;;;;2.17;1.63;;;8.20;99.90;;;;;;7398230;19;20135;-78
2023/12/15 08:30:24;;;;;;;1.97;1.80;;;8.20;99.90;;;;;;7394144;19;20264;-78
2023/12/15 08:32:50;;;;;;;1.90;1.50;;;8.20;99.90;;;;;;7396244;19;20131;-77
2023/12/15 08:35:15;;;;;;;1.80;1.50;;;8.20;99.90;;;;;;7397276;19;20162;-77
2023/12/15 08:37:41;;;;;;;2.30;1.30;;;8.20;99.90;;;;;;7396460;19;20158;-75
2023/12/15 08:40:07;;;;;;;1.50;1.40;;;8.10;99.90;;;;;;7398071;19;20154;-78
2023/12/15 08:42:33;;;;;;;1.80;1.67;;;8.00;99.90;;;;;;7399731;19;20198;-78
2023/12/15 08:45:01;;;;;;;2.07;1.37;;;8.10;99.90;;;;;;7395751;19;20134;-77
2023/12/15 08:47:30;;;;;;;4.43;2.67;;;8.30;99.90;;;;;;7395617;19;20289;-78
2023/12/15 08:49:56;;;;;;;4.63;3.43;;;8.30;99.90;;;;;;7394917;19;20139;-77
2023/12/15 08:52:21;;;;;;;3.57;2.33;;;8.40;99.90;;;;;;7397563;19;20204;-78
2023/12/15 08:54:49;;;;;;;1.87;1.63;;;8.40;99.90;;;;;;7396047;19;20479;-78
2023/12/15 08:57:16;;;;;;;5.17;1.70;;;8.40;99.90;;;;;;7398996;19;20142;-78
2023/12/15 08:59:44;;;;;;;2.00;1.80;;;8.40;99.90;;;;;;7396685;19;20206;-76
2023/12/15 09:02:12;;;;;;;10.47;5.70;;;8.30;99.90;;;;;;7396721;19;20228;-77
2023/12/15 09:04:40;;;;;;;2.07;1.47;;;8.30;99.90;;;;;;7394665;19;20508;-76
2023/12/15 09:07:09;;;;;;;3.33;2.60;;;8.10;99.90;;;;;;7397910;19;20139;-80
2023/12/15 09:09:36;;;;;;;2.17;1.77;;;7.90;99.90;;;;;;7397899;19;20138;-78
2023/12/15 09:12:02;;;;;;;2.43;1.47;;;7.70;99.90;;;;;;7396972;19;20138;-77
2023/12/15 09:14:30;;;;;;;1.40;1.30;;;8.00;99.90;;;;;;7395980;19;20134;-77
2023/12/15 09:16:56;;;;;;;2.17;1.33;;;8.10;99.90;;;;;;7394854;19;20135;-76
2023/12/15 09:19:26;;;;;;;1.63;1.30;;;8.30;99.90;;;;;;7395754;19;20145;-78
2023/12/15 09:21:52;;;;;;;2.73;1.80;;;8.40;99.90;;;;;;7395100;19;20161;-78
2023/12/15 09:24:18;;;;;;;2.37;2.17;;;8.40;99.90;;;;;;7397523;19;20539;-77
2023/12/15 09:26:45;;;;;;;2.57;1.93;;;8.40;99.90;;;;;;7393885;19;20135;-78
2023/12/15 09:29:12;;;;;;;2.17;1.53;;;8.60;99.90;;;;;;7395300;19;20165;-77
2023/12/15 09:31:38;;;;;;;3.20;2.03;;;8.40;99.90;;;;;;7392674;19;20196;-77
2023/12/15 09:34:05;;;;;;;3.00;2.17;;;8.40;99.90;;;;;;7397054;19;20130;-78
2023/12/15 09:36:31;;;;;;;1.83;1.43;;;8.50;99.90;;;;;;7396433;19;20511;-77
2023/12/15 09:38:57;;;;;;;4.07;1.90;;;8.60;99.90;;;;;;7395109;19;20496;-77
2023/12/15 09:41:23;;;;;;;2.43;1.97;;;8.70;99.90;;;;;;7394840;19;20137;-78
2023/12/15 09:43:49;;;;;;;1.67;1.30;;;8.70;99.90;;;;;;7394080;19;20172;-76
2023/12/15 09:46:16;;;;;;;2.50;1.90;;;8.60;99.90;;;;;;7394218;19;20155;-77
2023/12/15 09:48:44;;;;;;;2.07;1.67;;;8.50;99.90;;;;;;7393215;19;20127;-77
2023/12/15 09:51:17;;;;;;;3.03;1.67;;;8.60;99.90;;;;;;7394150;19;20143;-76
2023/12/15 09:53:48;;;;;;;2.83;1.87;;;8.60;99.90;;;;;;7398541;19;20141;-80
2023/12/15 09:56:15;;;;;;;2.40;1.63;;;8.70;99.90;;;;;;7393994;19;20139;-78
2023/12/15 09:58:41;;;;;;;2.30;1.83;;;8.70;99.90;;;;;;7392687;19;20620;-76
2023/12/15 10:01:07;;;;;;;2.03;1.63;;;8.70;99.90;;;;;;7393117;19;20615;-76
2023/12/15 10:03:33;;;;;;;2.77;2.20;;;8.80;99.90;;;;;;7394576;19;20135;-77
2023/12/15 10:05:59;;;;;;;2.00;1.80;;;8.90;99.90;;;;;;7391988;19;20651;-78
2023/12/15 10:08:25;;;;;;;2.53;1.53;;;8.80;99.90;;;;;;7393567;19;20139;-77
2023/12/15 10:10:51;;;;;;;2.03;1.50;;;8.90;99.90;;;;;;7394293;19;20137;-77
2023/12/15 10:13:17;;;;;;;2.43;1.93;;;9.10;99.90;;;;;;7393842;19;20615;-76
2023/12/15 10:15:43;;;;;;;2.03;1.80;;;9.10;99.90;;;;;;7392717;19;20258;-77
2023/12/15 10:18:12;;;;;;;2.93;1.90;;;9.20;99.90;;;;;;7394362;19;20228;-77
2023/12/15 10:20:38;;;;;;;2.53;1.87;;;9.20;99.90;;;;;;7392872;19;20142;-76
2023/12/15 10:23:06;;;;;;;2.13;1.90;;;9.20;99.90;;;;;;7395176;19;20143;-77
2023/12/15 10:25:35;;;;;;;1.40;1.30;;;9.30;99.90;;;;;;7391541;19;20178;-77
2023/12/15 10:28:04;;;;;;;2.00;1.60;;;9.30;99.90;;;;;;7394905;19;20599;-77
2023/12/15 10:30:30;;;;;;;2.40;2.17;;;9.40;99.90;;;;;;7392848;19;20172;-77
2023/12/15 10:32:59;;;;;;;2.43;1.80;;;9.30;99.90;;;;;;7392783;19;20171;-78
2023/12/15 10:35:26;;;;;;;2.50;1.67;;;9.40;99.90;;;;;;7393738;19;20181;-76
2023/12/15 10:37:53;;;;;;;2.53;2.07;;;9.40;99.90;;;;;;7390509;19;20529;-75
2023/12/15 10:40:19;;;;;;;3.10;2.20;;;9.50;99.90;;;;;;7393302;19;20643;-76
2023/12/15 10:42:45;;;;;;;2.30;1.60;;;9.40;99.90;;;;;;7391485;19;20147;-77
2023/12/15 10:45:11;;;;;;;1.83;1.60;;;9.50;99.90;;;;;;7390826;19;20181;-77
2023/12/15 10:47:39;;;;;;;4.43;2.63;;;9.60;99.90;;;;;;7390626;19;20180;-78
2023/12/15 10:50:07;;;;;;;3.60;2.03;;;9.70;99.90;;;;;;7390793;19;20146;-77
2023/12/15 10:52:36;;;;;;;1.67;1.47;;;9.70;99.90;;;;;;7393831;19;20154;-76
2023/12/15 10:55:03;;;;;;;3.17;2.33;;;9.50;99.90;;;;;;7392041;19;20150;-79
2023/12/15 10:57:32;;;;;;;1.53;1.33;;;9.50;99.90;;;;;;7392013;19;20146;-79
2023/12/15 11:00:02;;;;;;;1.70;1.53;;;9.60;99.90;;;;;;7392451;19;20530;-78
2023/12/15 11:02:30;;;;;;;2.10;1.87;;;9.60;99.90;;;;;;7393108;19;20146;-78
2023/12/15 11:04:58;;;;;;;2.97;1.80;;;9.70;99.90;;;;;;7391029;19;20170;-78
2023/12/15 11:07:25;;;;;;;1.97;1.60;;;9.70;99.90;;;;;;7394450;19;20134;-78
2023/12/15 11:09:51;;;;;;;1.87;1.63;;;9.50;99.90;;;;;;7391461;19;20147;-77
2023/12/15 11:12:34;;;;;;;1.87;1.67;;;9.40;99.90;;;;;;7394795;19;20163;-79
2023/12/15 11:15:27;;;;;;;1.57;1.40;;;9.40;99.90;;;;;;7390419;19;20153;-78
2023/12/15 11:17:59;;;;;;;1.60;1.47;;;9.20;99.90;;;;;;7392415;19;20154;-75
2023/12/15 11:20:26;;;;;;;2.80;1.30;;;9.50;99.90;;;;;;7392629;19;20146;-76
2023/12/15 11:23:05;;;;;;;1.57;1.33;;;9.60;99.90;;;;;;7390366;19;20146;-77
2023/12/15 11:25:36;;;;;;;1.60;1.33;;;9.60;99.90;;;;;;7392065;19;20158;-77
2023/12/15 11:28:15;;;;;;;3.83;1.83;;;9.50;99.90;;;;;;7390879;19;20155;-78
2023/12/15 11:30:48;;;;;;;2.23;1.70;;;9.70;99.90;;;;;;7389598;19;21083;-78
2023/12/15 11:33:32;;;;;;;2.03;1.67;;;9.80;99.90;;;;;;7390918;19;20167;-78
2023/12/15 11:36:03;;;;;;;2.57;1.73;;;9.80;99.90;;;;;;7393161;19;20585;-78
2023/12/15 11:38:29;;;;;;;2.13;1.70;;;9.80;99.90;;;;;;7391619;19;20181;-79
2023/12/15 11:40:56;;;;;;;1.47;1.27;;;9.90;99.90;;;;;;7390567;19;20146;-78
2023/12/15 11:43:24;;;;;;;1.50;1.40;;;9.90;99.90;;;;;;7391281;19;20600;-76
2023/12/15 11:45:53;;;;;;;3.40;1.80;;;9.80;99.90;;;;;;7389634;19;20155;-78
2023/12/15 11:48:25;;;;;;;1.60;1.07;;;9.70;99.90;;;;;;7392214;19;20150;-78
2023/12/15 11:50:54;;;;;;;1.20;1.03;;;9.70;99.90;;;;;;7391901;19;20134;-79
2023/12/15 11:53:20;;;;;;;3.63;1.63;;;9.70;99.90;;;;;;7390902;19;20150;-77
2023/12/15 11:55:49;;;;;;;1.77;1.37;;;9.70;99.90;;;;;;7391368;19;20139;-76
2023/12/15 11:58:15;;;;;;;2.87;1.90;;;9.80;99.90;;;;;;7391640;19;20198;-78
2023/12/15 12:00:42;;;;;;;2.17;1.80;;;9.80;99.90;;;;;;7390148;19;20131;-79
2023/12/15 12:03:10;;;;;;;2.33;1.37;;;9.80;99.90;;;;;;7394222;19;20139;-78
2023/12/15 12:05:38;;;;;;;2.50;1.50;;;9.80;99.90;;;;;;7389136;19;20279;-76
2023/12/15 12:08:04;;;;;;;1.43;1.33;;;9.80;99.90;;;;;;7391973;19;20131;-74
2023/12/15 12:10:40;;;;;;;1.53;1.30;;;9.70;99.90;;;;;;7388263;19;20152;-76
2023/12/15 12:13:07;;;;;;;2.00;1.30;;;9.50;99.90;;;;;;7389221;19;20611;-75
2023/12/15 12:15:47;;;;;;;1.43;1.10;;;9.50;99.90;;;;;;7389412;19;20210;-75
2023/12/15 12:18:14;;;;;;;1.37;1.03;;;9.70;99.90;;;;;;7391118;19;20135;-76
2023/12/15 12:20:43;;;;;;;1.07;0.97;;;9.80;99.90;;;;;;7388380;19;20484;-76
2023/12/15 12:23:09;;;;;;;1.33;1.10;;;9.80;99.90;;;;;;7389844;19;20142;-77
2023/12/15 12:25:35;;;;;;;1.33;1.23;;;10.00;99.90;;;;;;7388879;19;20150;-75
2023/12/15 12:28:00;;;;;;;1.10;1.00;;;9.90;99.90;;;;;;7388250;19;20591;-76
2023/12/15 12:30:28;;;;;;;1.27;1.17;;;9.90;99.90;;;;;;7388748;19;20579;-76
2023/12/15 12:32:54;;;;;;;1.27;1.00;;;9.90;99.90;;;;;;7389152;19;20214;-76
2023/12/15 12:35:19;;;;;;;1.20;1.00;;;9.80;99.90;;;;;;7388703;19;20140;-78
2023/12/15 12:37:45;;;;;;;1.30;1.20;;;9.90;99.90;;;;;;7390534;19;20190;-79
2023/12/15 12:40:11;;;;;;;1.57;1.20;;;9.90;99.90;;;;;;7390719;19;20202;-76
2023/12/15 12:42:37;;;;;;;1.73;1.23;;;9.90;99.90;;;;;;7390089;19;20126;-77
2023/12/15 12:45:03;;;;;;;1.10;0.83;;;9.80;99.90;;;;;;7388257;19;20130;-76
2023/12/15 12:47:29;;;;;;;1.10;1.00;;;9.70;99.90;;;;;;7385472;19;20174;-76
2023/12/15 12:49:55;;;;;;;1.17;1.10;;;9.80;99.90;;;;;;7393803;19;20143;-74
2023/12/15 12:52:20;;;;;;;1.10;1.00;;;9.80;99.90;;;;;;7397420;19;20253;-75
2023/12/15 12:54:46;;;;;;;1.60;1.13;;;9.80;99.90;;;;;;7395972;19;20146;-75